sensor_id;sensor_type;location;lat;lon;timestamp;temperature;humidity
3037;DHT22;1528;52.550;13.408;2022-08-27T00:00:15;20.60;99.90
3037;DHT22;1528;52.550;13.408;2022-08-27T00:03:00;20.60;99.90
3037;DHT22;1528;52.550;13.408;2022-08-27T00:05:46;20.70;99.90
3037;DHT22;1528;52.550;13.408;2022-08-27T00:08:33;20.60;99.90
3037;DHT22;1528;52.550;13.408;2022-08-27T00:11:20;20.50;99.90
3037;DHT22;1528;52.550;13.408;2022-08-27T00:14:07;20.60;99.90
3037;DHT22;1528;52.550;13.408;2022-08-27T00:16:53;20.60;99.90
3037;DHT22;1528;52.550;13.408;2022-08-27T00:19:40;20.70;99.90
3037;DHT22;1528;52.550;13.408;2022-08-27T00:22:25;20.70;99.90
3037;DHT22;1528;52.550;13.408;2022-08-27T00:25:13;20.80;99.90
3037;DHT22;1528;52.550;13.408;2022-08-27T00:27:58;20.60;99.90
3037;DHT22;1528;52.550;13.408;2022-08-27T00:30:44;20.70;99.90
3037;DHT22;1528;52.550;13.408;2022-08-27T00:33:29;20.70;99.90
3037;DHT22;1528;52.550;13.408;2022-08-27T00:36:15;20.70;99.90
3037;DHT22;1528;52.550;13.408;2022-08-27T00:39:00;20.80;99.90
3037;DHT22;1528;52.550;13.408;2022-08-27T00:41:48;20.80;99.90
3037;DHT22;1528;52.550;13.408;2022-08-27T00:44:34;20.70;99.90
3037;DHT22;1528;52.550;13.408;2022-08-27T00:47:24;20.80;99.90
3037;DHT22;1528;52.550;13.408;2022-08-27T00:50:13;20.70;99.90
3037;DHT22;1528;52.550;13.408;2022-08-27T00:53:02;20.80;99.90
3037;DHT22;1528;52.550;13.408;2022-08-27T00:55:51;20.80;99.90
3037;DHT22;1528;52.550;13.408;2022-08-27T00:58:41;20.80;99.90
3037;DHT22;1528;52.550;13.408;2022-08-27T01:01:29;20.80;99.90
3037;DHT22;1528;52.550;13.408;2022-08-27T01:04:15;20.80;99.70
3037;DHT22;1528;52.550;13.408;2022-08-27T01:07:01;20.80;99.90
3037;DHT22;1528;52.550;13.408;2022-08-27T01:09:48;20.80;99.90
3037;DHT22;1528;52.550;13.408;2022-08-27T01:12:34;20.90;99.90
3037;DHT22;1528;52.550;13.408;2022-08-27T01:15:23;20.80;99.90
3037;DHT22;1528;52.550;13.408;2022-08-27T01:18:10;20.80;99.90
3037;DHT22;1528;52.550;13.408;2022-08-27T01:21:00;20.80;99.50
3037;DHT22;1528;52.550;13.408;2022-08-27T01:23:51;20.80;99.90
3037;DHT22;1528;52.550;13.408;2022-08-27T01:26:40;21.00;99.90
3037;DHT22;1528;52.550;13.408;2022-08-27T01:29:26;20.90;99.60
3037;DHT22;1528;52.550;13.408;2022-08-27T01:32:14;21.00;99.20
3037;DHT22;1528;52.550;13.408;2022-08-27T01:35:01;21.00;98.30
3037;DHT22;1528;52.550;13.408;2022-08-27T01:37:48;20.80;99.70
3037;DHT22;1528;52.550;13.408;2022-08-27T01:40:35;20.90;99.30
3037;DHT22;1528;52.550;13.408;2022-08-27T01:43:22;20.90;99.10
3037;DHT22;1528;52.550;13.408;2022-08-27T01:46:08;20.90;98.50
3037;DHT22;1528;52.550;13.408;2022-08-27T01:48:54;20.80;99.50
3037;DHT22;1528;52.550;13.408;2022-08-27T01:51:39;20.80;99.30
3037;DHT22;1528;52.550;13.408;2022-08-27T01:54:24;20.90;99.90
3037;DHT22;1528;52.550;13.408;2022-08-27T01:57:11;20.80;99.60
3037;DHT22;1528;52.550;13.408;2022-08-27T01:59:57;20.80;99.90
3037;DHT22;1528;52.550;13.408;2022-08-27T02:02:43;20.90;99.90
3037;DHT22;1528;52.550;13.408;2022-08-27T02:05:30;21.00;99.40
3037;DHT22;1528;52.550;13.408;2022-08-27T02:08:17;20.90;99.90
3037;DHT22;1528;52.550;13.408;2022-08-27T02:11:03;21.00;99.90
3037;DHT22;1528;52.550;13.408;2022-08-27T02:13:49;21.10;98.80
3037;DHT22;1528;52.550;13.408;2022-08-27T02:16:36;21.00;99.70
3037;DHT22;1528;52.550;13.408;2022-08-27T02:19:22;21.10;99.80
3037;DHT22;1528;52.550;13.408;2022-08-27T02:22:08;21.10;99.90
3037;DHT22;1528;52.550;13.408;2022-08-27T02:24:53;21.10;99.90
3037;DHT22;1528;52.550;13.408;2022-08-27T02:27:39;21.10;99.90
3037;DHT22;1528;52.550;13.408;2022-08-27T02:30:27;21.10;99.90
3037;DHT22;1528;52.550;13.408;2022-08-27T02:33:14;21.20;99.70
3037;DHT22;1528;52.550;13.408;2022-08-27T02:35:59;21.20;99.30
3037;DHT22;1528;52.550;13.408;2022-08-27T02:38:45;21.20;99.60
3037;DHT22;1528;52.550;13.408;2022-08-27T02:41:31;21.20;99.50
3037;DHT22;1528;52.550;13.408;2022-08-27T02:44:16;21.20;99.90
3037;DHT22;1528;52.550;13.408;2022-08-27T02:47:02;21.30;99.70
3037;DHT22;1528;52.550;13.408;2022-08-27T02:49:49;21.20;99.90
3037;DHT22;1528;52.550;13.408;2022-08-27T02:52:35;21.30;99.90
3037;DHT22;1528;52.550;13.408;2022-08-27T02:55:21;21.30;99.90
3037;DHT22;1528;52.550;13.408;2022-08-27T02:58:07;21.30;99.90
3037;DHT22;1528;52.550;13.408;2022-08-27T03:00:53;21.30;99.00
3037;DHT22;1528;52.550;13.408;2022-08-27T03:03:40;21.40;98.70
3037;DHT22;1528;52.550;13.408;2022-08-27T03:06:27;21.40;98.40
3037;DHT22;1528;52.550;13.408;2022-08-27T03:09:14;21.50;97.30
3037;DHT22;1528;52.550;13.408;2022-08-27T03:12:00;21.40;97.40
3037;DHT22;1528;52.550;13.408;2022-08-27T03:14:46;21.40;97.70
3037;DHT22;1528;52.550;13.408;2022-08-27T03:17:32;21.40;98.00
3037;DHT22;1528;52.550;13.408;2022-08-27T03:20:37;21.40;99.00
3037;DHT22;1528;52.550;13.408;2022-08-27T03:23:26;21.30;99.20
3037;DHT22;1528;52.550;13.408;2022-08-27T03:26:13;21.30;99.20
3037;DHT22;1528;52.550;13.408;2022-08-27T03:28:58;21.30;98.10
3037;DHT22;1528;52.550;13.408;2022-08-27T03:31:44;21.30;98.60
3037;DHT22;1528;52.550;13.408;2022-08-27T03:34:29;21.30;98.50
3037;DHT22;1528;52.550;13.408;2022-08-27T03:37:15;21.30;99.00
3037;DHT22;1528;52.550;13.408;2022-08-27T03:40:03;21.10;99.90
3037;DHT22;1528;52.550;13.408;2022-08-27T03:42:49;21.20;99.40
3037;DHT22;1528;52.550;13.408;2022-08-27T03:45:35;21.10;99.90
3037;DHT22;1528;52.550;13.408;2022-08-27T03:48:21;21.00;99.90
3037;DHT22;1528;52.550;13.408;2022-08-27T03:51:08;21.10;99.90
3037;DHT22;1528;52.550;13.408;2022-08-27T03:53:54;21.10;99.90
3037;DHT22;1528;52.550;13.408;2022-08-27T03:56:41;21.20;99.90
3037;DHT22;1528;52.550;13.408;2022-08-27T03:59:26;21.20;99.90
3037;DHT22;1528;52.550;13.408;2022-08-27T04:02:12;21.10;99.90
3037;DHT22;1528;52.550;13.408;2022-08-27T04:04:59;21.00;99.90
3037;DHT22;1528;52.550;13.408;2022-08-27T04:07:44;21.00;99.90
3037;DHT22;1528;52.550;13.408;2022-08-27T04:10:30;21.00;99.90
3037;DHT22;1528;52.550;13.408;2022-08-27T04:13:17;21.10;99.90
3037;DHT22;1528;52.550;13.408;2022-08-27T04:16:04;21.00;99.90
3037;DHT22;1528;52.550;13.408;2022-08-27T04:18:49;21.00;99.90
3037;DHT22;1528;52.550;13.408;2022-08-27T04:21:35;20.90;99.90
3037;DHT22;1528;52.550;13.408;2022-08-27T04:24:21;20.90;99.90
3037;DHT22;1528;52.550;13.408;2022-08-27T04:27:06;20.90;99.90
3037;DHT22;1528;52.550;13.408;2022-08-27T04:29:55;20.80;99.90
3037;DHT22;1528;52.550;13.408;2022-08-27T04:32:41;20.80;99.90
3037;DHT22;1528;52.550;13.408;2022-08-27T04:35:26;20.70;99.90
3037;DHT22;1528;52.550;13.408;2022-08-27T04:38:12;20.70;99.90
3037;DHT22;1528;52.550;13.408;2022-08-27T04:40:58;20.80;99.90
3037;DHT22;1528;52.550;13.408;2022-08-27T04:44:03;20.90;99.90
3037;DHT22;1528;52.550;13.408;2022-08-27T04:46:54;20.80;99.90
3037;DHT22;1528;52.550;13.408;2022-08-27T04:49:40;20.90;99.90
3037;DHT22;1528;52.550;13.408;2022-08-27T04:52:26;20.80;99.90
3037;DHT22;1528;52.550;13.408;2022-08-27T04:55:11;20.90;99.90
3037;DHT22;1528;52.550;13.408;2022-08-27T04:57:57;20.80;99.90
3037;DHT22;1528;52.550;13.408;2022-08-27T05:00:43;20.90;99.90
3037;DHT22;1528;52.550;13.408;2022-08-27T05:03:30;20.90;99.90
3037;DHT22;1528;52.550;13.408;2022-08-27T05:06:16;20.80;99.90
3037;DHT22;1528;52.550;13.408;2022-08-27T05:09:02;20.70;99.90
3037;DHT22;1528;52.550;13.408;2022-08-27T05:11:48;20.80;99.90
3037;DHT22;1528;52.550;13.408;2022-08-27T05:14:35;20.70;99.90
3037;DHT22;1528;52.550;13.408;2022-08-27T05:17:21;20.80;99.90
3037;DHT22;1528;52.550;13.408;2022-08-27T05:20:09;20.80;99.90
3037;DHT22;1528;52.550;13.408;2022-08-27T05:22:55;20.80;99.90
3037;DHT22;1528;52.550;13.408;2022-08-27T05:25:43;20.90;99.90
3037;DHT22;1528;52.550;13.408;2022-08-27T05:28:29;20.80;99.90
3037;DHT22;1528;52.550;13.408;2022-08-27T05:31:15;20.80;99.90
3037;DHT22;1528;52.550;13.408;2022-08-27T05:34:02;20.90;99.90
3037;DHT22;1528;52.550;13.408;2022-08-27T05:36:50;20.80;99.90
3037;DHT22;1528;52.550;13.408;2022-08-27T05:39:37;20.90;99.90
3037;DHT22;1528;52.550;13.408;2022-08-27T05:42:24;21.10;99.90
3037;DHT22;1528;52.550;13.408;2022-08-27T05:45:10;21.00;99.90
3037;DHT22;1528;52.550;13.408;2022-08-27T05:47:55;20.90;99.90
3037;DHT22;1528;52.550;13.408;2022-08-27T05:50:43;21.00;99.90
3037;DHT22;1528;52.550;13.408;2022-08-27T05:53:30;21.00;99.90
3037;DHT22;1528;52.550;13.408;2022-08-27T05:56:18;21.00;99.90
3037;DHT22;1528;52.550;13.408;2022-08-27T05:59:04;21.10;99.90
3037;DHT22;1528;52.550;13.408;2022-08-27T06:02:08;21.00;99.90
3037;DHT22;1528;52.550;13.408;2022-08-27T06:04:57;21.10;99.90
3037;DHT22;1528;52.550;13.408;2022-08-27T06:07:42;21.10;99.60
3037;DHT22;1528;52.550;13.408;2022-08-27T06:10:29;21.10;99.60
3037;DHT22;1528;52.550;13.408;2022-08-27T06:13:14;21.10;99.90
3037;DHT22;1528;52.550;13.408;2022-08-27T06:16:01;21.20;99.90
3037;DHT22;1528;52.550;13.408;2022-08-27T06:18:47;21.10;99.30
3037;DHT22;1528;52.550;13.408;2022-08-27T06:21:33;21.20;99.90
3037;DHT22;1528;52.550;13.408;2022-08-27T06:24:18;21.30;97.30
3037;DHT22;1528;52.550;13.408;2022-08-27T06:27:08;21.30;97.00
3037;DHT22;1528;52.550;13.408;2022-08-27T06:29:54;21.20;97.80
3037;DHT22;1528;52.550;13.408;2022-08-27T06:32:40;21.30;97.40
3037;DHT22;1528;52.550;13.408;2022-08-27T06:35:25;21.40;97.90
3037;DHT22;1528;52.550;13.408;2022-08-27T06:38:10;21.30;97.50
3037;DHT22;1528;52.550;13.408;2022-08-27T06:40:56;21.30;97.00
3037;DHT22;1528;52.550;13.408;2022-08-27T06:43:43;21.30;97.00
3037;DHT22;1528;52.550;13.408;2022-08-27T06:46:29;21.40;97.10
3037;DHT22;1528;52.550;13.408;2022-08-27T06:49:14;21.40;95.20
3037;DHT22;1528;52.550;13.408;2022-08-27T06:52:00;21.40;95.80
3037;DHT22;1528;52.550;13.408;2022-08-27T06:54:48;21.50;95.30
3037;DHT22;1528;52.550;13.408;2022-08-27T06:57:36;21.60;95.10
3037;DHT22;1528;52.550;13.408;2022-08-27T07:00:26;21.70;93.70
3037;DHT22;1528;52.550;13.408;2022-08-27T07:03:11;21.80;93.50
3037;DHT22;1528;52.550;13.408;2022-08-27T07:06:05;21.70;93.00
3037;DHT22;1528;52.550;13.408;2022-08-27T07:08:50;21.80;92.00
3037;DHT22;1528;52.550;13.408;2022-08-27T07:11:37;21.80;92.70
3037;DHT22;1528;52.550;13.408;2022-08-27T07:14:26;21.80;91.40
3037;DHT22;1528;52.550;13.408;2022-08-27T07:17:13;21.90;92.20
3037;DHT22;1528;52.550;13.408;2022-08-27T07:20:03;21.80;92.10
3037;DHT22;1528;52.550;13.408;2022-08-27T07:22:49;21.80;92.60
3037;DHT22;1528;52.550;13.408;2022-08-27T07:25:40;21.80;92.50
3037;DHT22;1528;52.550;13.408;2022-08-27T07:28:26;21.80;93.00
3037;DHT22;1528;52.550;13.408;2022-08-27T07:31:14;21.80;92.90
3037;DHT22;1528;52.550;13.408;2022-08-27T07:34:02;22.00;91.60
3037;DHT22;1528;52.550;13.408;2022-08-27T07:36:48;22.00;90.60
3037;DHT22;1528;52.550;13.408;2022-08-27T07:39:34;22.10;90.60
3037;DHT22;1528;52.550;13.408;2022-08-27T07:42:20;22.10;90.30
3037;DHT22;1528;52.550;13.408;2022-08-27T07:45:23;22.10;89.40
3037;DHT22;1528;52.550;13.408;2022-08-27T07:48:09;22.10;90.40
3037;DHT22;1528;52.550;13.408;2022-08-27T07:50:56;22.00;90.10
3037;DHT22;1528;52.550;13.408;2022-08-27T07:53:44;22.20;90.40
3037;DHT22;1528;52.550;13.408;2022-08-27T07:56:29;22.20;90.00
3037;DHT22;1528;52.550;13.408;2022-08-27T07:59:15;22.10;89.10
3037;DHT22;1528;52.550;13.408;2022-08-27T08:02:01;22.10;88.30
3037;DHT22;1528;52.550;13.408;2022-08-27T08:04:47;22.20;86.10
3037;DHT22;1528;52.550;13.408;2022-08-27T08:07:34;22.20;85.50
3037;DHT22;1528;52.550;13.408;2022-08-27T08:10:21;22.30;83.80
3037;DHT22;1528;52.550;13.408;2022-08-27T08:13:07;22.30;84.10
3037;DHT22;1528;52.550;13.408;2022-08-27T08:15:52;22.50;83.50
3037;DHT22;1528;52.550;13.408;2022-08-27T08:18:38;22.60;81.80
3037;DHT22;1528;52.550;13.408;2022-08-27T08:21:24;22.70;81.00
3037;DHT22;1528;52.550;13.408;2022-08-27T08:24:11;22.70;79.90
3037;DHT22;1528;52.550;13.408;2022-08-27T08:26:56;22.70;78.90
3037;DHT22;1528;52.550;13.408;2022-08-27T08:29:41;22.80;77.60
3037;DHT22;1528;52.550;13.408;2022-08-27T08:32:27;22.70;76.90
3037;DHT22;1528;52.550;13.408;2022-08-27T08:35:13;22.80;77.80
3037;DHT22;1528;52.550;13.408;2022-08-27T08:37:59;23.00;76.70
3037;DHT22;1528;52.550;13.408;2022-08-27T08:40:48;23.30;75.50
3037;DHT22;1528;52.550;13.408;2022-08-27T08:43:39;23.20;74.60
3037;DHT22;1528;52.550;13.408;2022-08-27T08:46:38;23.30;73.60
3037;DHT22;1528;52.550;13.408;2022-08-27T08:49:31;23.30;71.40
3037;DHT22;1528;52.550;13.408;2022-08-27T08:52:36;23.10;73.70
3037;DHT22;1528;52.550;13.408;2022-08-27T08:55:31;23.20;72.40
3037;DHT22;1528;52.550;13.408;2022-08-27T08:58:31;23.10;73.10
3037;DHT22;1528;52.550;13.408;2022-08-27T09:01:19;23.20;73.50
3037;DHT22;1528;52.550;13.408;2022-08-27T09:04:09;23.10;72.00
3037;DHT22;1528;52.550;13.408;2022-08-27T09:07:01;23.00;71.90
3037;DHT22;1528;52.550;13.408;2022-08-27T09:09:52;22.90;72.60
3037;DHT22;1528;52.550;13.408;2022-08-27T09:12:43;23.00;73.40
3037;DHT22;1528;52.550;13.408;2022-08-27T09:15:34;23.00;72.20
3037;DHT22;1528;52.550;13.408;2022-08-27T09:18:25;22.80;73.00
3037;DHT22;1528;52.550;13.408;2022-08-27T09:21:25;22.90;73.20
3037;DHT22;1528;52.550;13.408;2022-08-27T09:24:19;22.90;72.90
3037;DHT22;1528;52.550;13.408;2022-08-27T09:27:07;23.00;74.70
3037;DHT22;1528;52.550;13.408;2022-08-27T09:29:56;23.00;73.70
3037;DHT22;1528;52.550;13.408;2022-08-27T09:32:43;23.10;74.50
3037;DHT22;1528;52.550;13.408;2022-08-27T09:35:43;23.00;75.00
3037;DHT22;1528;52.550;13.408;2022-08-27T09:38:32;23.20;73.70
3037;DHT22;1528;52.550;13.408;2022-08-27T09:41:24;22.90;77.90
3037;DHT22;1528;52.550;13.408;2022-08-27T09:44:16;23.00;82.80
3037;DHT22;1528;52.550;13.408;2022-08-27T09:47:13;23.20;83.70
3037;DHT22;1528;52.550;13.408;2022-08-27T09:50:06;23.30;78.00
3037;DHT22;1528;52.550;13.408;2022-08-27T09:52:56;23.40;80.40
3037;DHT22;1528;52.550;13.408;2022-08-27T09:55:46;23.40;76.90
3037;DHT22;1528;52.550;13.408;2022-08-27T09:58:49;23.60;76.50
3037;DHT22;1528;52.550;13.408;2022-08-27T10:01:51;23.60;74.00
3037;DHT22;1528;52.550;13.408;2022-08-27T10:04:41;23.80;73.80
3037;DHT22;1528;52.550;13.408;2022-08-27T10:07:40;23.80;73.30
3037;DHT22;1528;52.550;13.408;2022-08-27T10:10:38;23.80;74.50
3037;DHT22;1528;52.550;13.408;2022-08-27T10:13:36;23.80;75.80
3037;DHT22;1528;52.550;13.408;2022-08-27T10:16:56;23.90;73.10
3037;DHT22;1528;52.550;13.408;2022-08-27T10:19:55;23.90;71.40
3037;DHT22;1528;52.550;13.408;2022-08-27T10:22:54;24.00;70.70
3037;DHT22;1528;52.550;13.408;2022-08-27T10:25:51;23.90;70.70
3037;DHT22;1528;52.550;13.408;2022-08-27T10:28:56;23.90;69.30
3037;DHT22;1528;52.550;13.408;2022-08-27T10:31:54;23.90;70.10
3037;DHT22;1528;52.550;13.408;2022-08-27T10:34:49;23.80;69.90
3037;DHT22;1528;52.550;13.408;2022-08-27T10:37:50;23.80;70.00
3037;DHT22;1528;52.550;13.408;2022-08-27T10:40:45;23.80;70.00
3037;DHT22;1528;52.550;13.408;2022-08-27T10:47:21;23.90;68.20
3037;DHT22;1528;52.550;13.408;2022-08-27T10:50:25;24.10;68.00
3037;DHT22;1528;52.550;13.408;2022-08-27T10:53:27;24.30;68.00
3037;DHT22;1528;52.550;13.408;2022-08-27T10:56:24;24.40;67.10
3037;DHT22;1528;52.550;13.408;2022-08-27T10:59:22;24.50;66.70
3037;DHT22;1528;52.550;13.408;2022-08-27T11:02:21;24.40;65.80
3037;DHT22;1528;52.550;13.408;2022-08-27T11:05:17;24.20;66.50
3037;DHT22;1528;52.550;13.408;2022-08-27T11:08:11;23.90;67.40
3037;DHT22;1528;52.550;13.408;2022-08-27T11:11:07;23.90;67.50
3037;DHT22;1528;52.550;13.408;2022-08-27T11:13:58;24.00;68.50
3037;DHT22;1528;52.550;13.408;2022-08-27T11:16:53;24.10;67.40
3037;DHT22;1528;52.550;13.408;2022-08-27T11:19:52;24.20;65.80
3037;DHT22;1528;52.550;13.408;2022-08-27T11:22:45;24.20;66.00
3037;DHT22;1528;52.550;13.408;2022-08-27T11:25:48;24.20;65.80
3037;DHT22;1528;52.550;13.408;2022-08-27T11:28:57;24.20;66.80
3037;DHT22;1528;52.550;13.408;2022-08-27T11:31:54;24.20;66.40
3037;DHT22;1528;52.550;13.408;2022-08-27T11:34:48;24.20;66.60
3037;DHT22;1528;52.550;13.408;2022-08-27T11:38:02;23.70;67.70
3037;DHT22;1528;52.550;13.408;2022-08-27T11:41:10;23.90;68.50
3037;DHT22;1528;52.550;13.408;2022-08-27T11:44:02;24.00;68.50
3037;DHT22;1528;52.550;13.408;2022-08-27T11:46:53;24.30;65.50
3037;DHT22;1528;52.550;13.408;2022-08-27T11:49:44;24.30;65.40
3037;DHT22;1528;52.550;13.408;2022-08-27T11:52:33;24.60;65.50
3037;DHT22;1528;52.550;13.408;2022-08-27T11:55:25;24.80;63.30
3037;DHT22;1528;52.550;13.408;2022-08-27T11:58:25;25.00;61.00
3037;DHT22;1528;52.550;13.408;2022-08-27T12:01:16;25.30;60.70
3037;DHT22;1528;52.550;13.408;2022-08-27T12:04:31;25.50;58.30
3037;DHT22;1528;52.550;13.408;2022-08-27T12:07:27;25.80;56.90
3037;DHT22;1528;52.550;13.408;2022-08-27T12:10:23;26.00;56.50
3037;DHT22;1528;52.550;13.408;2022-08-27T12:13:18;26.00;55.70
3037;DHT22;1528;52.550;13.408;2022-08-27T12:16:15;26.10;54.30
3037;DHT22;1528;52.550;13.408;2022-08-27T12:19:30;26.10;54.30
3037;DHT22;1528;52.550;13.408;2022-08-27T12:23:01;26.10;53.70
3037;DHT22;1528;52.550;13.408;2022-08-27T12:26:29;26.20;52.90
3037;DHT22;1528;52.550;13.408;2022-08-27T12:29:20;25.90;54.10
3037;DHT22;1528;52.550;13.408;2022-08-27T12:32:23;26.00;53.10
3037;DHT22;1528;52.550;13.408;2022-08-27T12:35:12;26.00;52.80
3037;DHT22;1528;52.550;13.408;2022-08-27T12:38:08;26.70;52.10
3037;DHT22;1528;52.550;13.408;2022-08-27T12:40:58;27.60;47.30
3037;DHT22;1528;52.550;13.408;2022-08-27T12:43:48;27.90;46.10
3037;DHT22;1528;52.550;13.408;2022-08-27T12:46:42;27.90;44.60
3037;DHT22;1528;52.550;13.408;2022-08-27T12:49:35;27.70;45.10
3037;DHT22;1528;52.550;13.408;2022-08-27T12:52:40;27.20;45.20
3037;DHT22;1528;52.550;13.408;2022-08-27T12:55:37;26.80;46.30
3037;DHT22;1528;52.550;13.408;2022-08-27T12:58:33;26.70;47.30
3037;DHT22;1528;52.550;13.408;2022-08-27T13:01:44;26.90;46.40
3037;DHT22;1528;52.550;13.408;2022-08-27T13:04:38;27.20;46.10
3037;DHT22;1528;52.550;13.408;2022-08-27T13:07:25;27.60;43.50
3037;DHT22;1528;52.550;13.408;2022-08-27T13:10:13;27.90;42.90
3037;DHT22;1528;52.550;13.408;2022-08-27T13:13:02;28.30;40.80
3037;DHT22;1528;52.550;13.408;2022-08-27T13:15:51;28.20;41.30
3037;DHT22;1528;52.550;13.408;2022-08-27T13:18:38;27.80;41.00
3037;DHT22;1528;52.550;13.408;2022-08-27T13:21:29;27.60;41.90
3037;DHT22;1528;52.550;13.408;2022-08-27T13:24:19;27.50;42.00
3037;DHT22;1528;52.550;13.408;2022-08-27T13:27:31;27.50;42.60
3037;DHT22;1528;52.550;13.408;2022-08-27T13:30:24;27.40;41.50
3037;DHT22;1528;52.550;13.408;2022-08-27T13:33:15;27.70;40.80
3037;DHT22;1528;52.550;13.408;2022-08-27T13:36:02;27.80;40.10
3037;DHT22;1528;52.550;13.408;2022-08-27T13:38:51;27.90;39.90
3037;DHT22;1528;52.550;13.408;2022-08-27T13:41:38;28.30;38.50
3037;DHT22;1528;52.550;13.408;2022-08-27T13:44:25;28.40;37.70
3037;DHT22;1528;52.550;13.408;2022-08-27T13:47:16;28.40;37.50
3037;DHT22;1528;52.550;13.408;2022-08-27T13:50:16;28.40;38.30
3037;DHT22;1528;52.550;13.408;2022-08-27T13:53:06;28.40;38.70
3037;DHT22;1528;52.550;13.408;2022-08-27T13:56:22;28.20;38.60
3037;DHT22;1528;52.550;13.408;2022-08-27T13:59:11;28.00;39.30
3037;DHT22;1528;52.550;13.408;2022-08-27T14:02:00;27.90;38.60
3037;DHT22;1528;52.550;13.408;2022-08-27T14:04:47;27.80;38.80
3037;DHT22;1528;52.550;13.408;2022-08-27T14:07:34;28.00;38.70
3037;DHT22;1528;52.550;13.408;2022-08-27T14:10:33;27.90;38.80
3037;DHT22;1528;52.550;13.408;2022-08-27T14:13:22;27.80;38.00
3037;DHT22;1528;52.550;13.408;2022-08-27T14:16:15;27.60;38.70
3037;DHT22;1528;52.550;13.408;2022-08-27T14:19:09;27.30;39.50
3037;DHT22;1528;52.550;13.408;2022-08-27T14:21:59;27.00;40.00
3037;DHT22;1528;52.550;13.408;2022-08-27T14:24:45;26.70;41.10
3037;DHT22;1528;52.550;13.408;2022-08-27T14:27:30;26.70;41.70
3037;DHT22;1528;52.550;13.408;2022-08-27T14:30:19;26.60;41.60
3037;DHT22;1528;52.550;13.408;2022-08-27T14:33:05;26.30;42.50
3037;DHT22;1528;52.550;13.408;2022-08-27T14:35:51;26.30;42.90
3037;DHT22;1528;52.550;13.408;2022-08-27T14:38:39;26.10;43.00
3037;DHT22;1528;52.550;13.408;2022-08-27T14:41:26;25.80;44.30
3037;DHT22;1528;52.550;13.408;2022-08-27T14:44:11;25.80;45.30
3037;DHT22;1528;52.550;13.408;2022-08-27T14:46:58;25.70;44.90
3037;DHT22;1528;52.550;13.408;2022-08-27T14:49:45;25.60;45.40
3037;DHT22;1528;52.550;13.408;2022-08-27T14:52:31;25.50;45.30
3037;DHT22;1528;52.550;13.408;2022-08-27T14:55:22;25.40;46.10
3037;DHT22;1528;52.550;13.408;2022-08-27T14:58:08;25.40;46.20
3037;DHT22;1528;52.550;13.408;2022-08-27T15:00:54;25.50;46.10
3037;DHT22;1528;52.550;13.408;2022-08-27T15:03:46;25.60;45.90
3037;DHT22;1528;52.550;13.408;2022-08-27T15:06:35;25.50;46.30
3037;DHT22;1528;52.550;13.408;2022-08-27T15:09:21;25.60;45.60
3037;DHT22;1528;52.550;13.408;2022-08-27T15:12:06;25.60;46.20
3037;DHT22;1528;52.550;13.408;2022-08-27T15:14:52;25.70;45.60
3037;DHT22;1528;52.550;13.408;2022-08-27T15:17:38;25.70;46.10
3037;DHT22;1528;52.550;13.408;2022-08-27T15:20:24;25.60;46.00
3037;DHT22;1528;52.550;13.408;2022-08-27T15:23:11;25.60;46.30
3037;DHT22;1528;52.550;13.408;2022-08-27T15:25:58;25.50;46.90
3037;DHT22;1528;52.550;13.408;2022-08-27T15:28:43;25.40;47.40
3037;DHT22;1528;52.550;13.408;2022-08-27T15:31:29;25.30;47.80
3037;DHT22;1528;52.550;13.408;2022-08-27T15:34:15;25.20;47.30
3037;DHT22;1528;52.550;13.408;2022-08-27T15:37:01;25.20;47.70
3037;DHT22;1528;52.550;13.408;2022-08-27T15:39:47;25.40;48.20
3037;DHT22;1528;52.550;13.408;2022-08-27T15:42:33;25.50;46.60
3037;DHT22;1528;52.550;13.408;2022-08-27T15:45:18;25.60;45.80
3037;DHT22;1528;52.550;13.408;2022-08-27T15:48:04;25.60;45.50
3037;DHT22;1528;52.550;13.408;2022-08-27T15:50:50;25.60;45.60
3037;DHT22;1528;52.550;13.408;2022-08-27T15:53:38;25.50;46.00
3037;DHT22;1528;52.550;13.408;2022-08-27T15:56:24;25.40;46.30
3037;DHT22;1528;52.550;13.408;2022-08-27T15:59:10;25.30;46.50
3037;DHT22;1528;52.550;13.408;2022-08-27T16:01:56;25.30;47.10
3037;DHT22;1528;52.550;13.408;2022-08-27T16:04:42;25.10;47.30
3037;DHT22;1528;52.550;13.408;2022-08-27T16:07:28;24.90;48.10
3037;DHT22;1528;52.550;13.408;2022-08-27T16:10:15;24.90;48.30
3037;DHT22;1528;52.550;13.408;2022-08-27T16:13:00;24.90;48.60
3037;DHT22;1528;52.550;13.408;2022-08-27T16:15:48;24.50;49.20
3037;DHT22;1528;52.550;13.408;2022-08-27T16:18:34;24.70;49.40
3037;DHT22;1528;52.550;13.408;2022-08-27T16:21:20;24.50;49.40
3037;DHT22;1528;52.550;13.408;2022-08-27T16:24:06;24.30;49.90
3037;DHT22;1528;52.550;13.408;2022-08-27T16:26:54;24.30;50.00
3037;DHT22;1528;52.550;13.408;2022-08-27T16:29:39;24.20;50.10
3037;DHT22;1528;52.550;13.408;2022-08-27T16:32:27;24.10;50.70
3037;DHT22;1528;52.550;13.408;2022-08-27T16:35:15;24.00;50.80
3037;DHT22;1528;52.550;13.408;2022-08-27T16:38:01;24.00;51.60
3037;DHT22;1528;52.550;13.408;2022-08-27T16:40:49;24.00;50.90
3037;DHT22;1528;52.550;13.408;2022-08-27T16:43:38;23.90;51.60
3037;DHT22;1528;52.550;13.408;2022-08-27T16:46:24;23.80;51.80
3037;DHT22;1528;52.550;13.408;2022-08-27T16:49:09;23.70;52.10
3037;DHT22;1528;52.550;13.408;2022-08-27T16:52:12;23.70;51.80
3037;DHT22;1528;52.550;13.408;2022-08-27T16:54:58;23.50;52.50
3037;DHT22;1528;52.550;13.408;2022-08-27T16:57:44;23.50;53.00
3037;DHT22;1528;52.550;13.408;2022-08-27T17:00:37;23.40;53.40
3037;DHT22;1528;52.550;13.408;2022-08-27T17:03:24;23.30;53.50
3037;DHT22;1528;52.550;13.408;2022-08-27T17:06:09;23.30;54.10
3037;DHT22;1528;52.550;13.408;2022-08-27T17:08:58;23.30;54.00
3037;DHT22;1528;52.550;13.408;2022-08-27T17:11:53;23.30;54.30
3037;DHT22;1528;52.550;13.408;2022-08-27T17:14:39;23.30;54.80
3037;DHT22;1528;52.550;13.408;2022-08-27T17:17:27;23.20;55.70
3037;DHT22;1528;52.550;13.408;2022-08-27T17:20:13;23.10;55.90
3037;DHT22;1528;52.550;13.408;2022-08-27T17:22:59;23.10;56.00
3037;DHT22;1528;52.550;13.408;2022-08-27T17:25:45;23.10;55.80
3037;DHT22;1528;52.550;13.408;2022-08-27T17:28:30;23.00;55.80
3037;DHT22;1528;52.550;13.408;2022-08-27T17:31:19;23.20;56.00
3037;DHT22;1528;52.550;13.408;2022-08-27T17:34:13;23.00;55.80
3037;DHT22;1528;52.550;13.408;2022-08-27T17:36:59;22.90;56.20
3037;DHT22;1528;52.550;13.408;2022-08-27T17:39:44;22.80;56.50
3037;DHT22;1528;52.550;13.408;2022-08-27T17:42:30;22.80;56.30
3037;DHT22;1528;52.550;13.408;2022-08-27T17:45:16;22.80;56.10
3037;DHT22;1528;52.550;13.408;2022-08-27T17:48:01;22.70;56.60
3037;DHT22;1528;52.550;13.408;2022-08-27T17:50:49;22.70;56.10
3037;DHT22;1528;52.550;13.408;2022-08-27T17:53:34;22.60;56.00
3037;DHT22;1528;52.550;13.408;2022-08-27T17:56:21;22.60;56.60
3037;DHT22;1528;52.550;13.408;2022-08-27T17:59:08;22.60;56.90
3037;DHT22;1528;52.550;13.408;2022-08-27T18:01:53;22.60;57.10
3037;DHT22;1528;52.550;13.408;2022-08-27T18:04:39;22.70;56.60
3037;DHT22;1528;52.550;13.408;2022-08-27T18:07:27;22.60;55.90
3037;DHT22;1528;52.550;13.408;2022-08-27T18:10:17;22.50;56.40